sensor_id;sensor_type;location;lat;lon;timestamp;pressure;altitude;pressure_sealevel;temperature;humidity
44697;BME280;57264;47.480;19.354;2023-07-16T00:02:20;99027.09;;;22.76;62.20
44697;BME280;57264;47.480;19.354;2023-07-16T00:04:45;99040.97;;;22.17;64.06
44697;BME280;57264;47.480;19.354;2023-07-16T00:07:10;99040.53;;;21.81;66.46
44697;BME280;57264;47.480;19.354;2023-07-16T00:09:36;99032.53;;;22.28;63.43
44697;BME280;57264;47.480;19.354;2023-07-16T00:12:01;99023.94;;;22.08;64.29
44697;BME280;57264;47.480;19.354;2023-07-16T00:14:27;99028.03;;;22.24;63.21
44697;BME280;57264;47.480;19.354;2023-07-16T00:16:52;99016.28;;;22.44;61.88
44697;BME280;57264;47.480;19.354;2023-07-16T00:19:18;99012.09;;;22.56;61.24
44697;BME280;57264;47.480;19.354;2023-07-16T00:21:43;99019.09;;;22.52;61.38
44697;BME280;57264;47.480;19.354;2023-07-16T00:24:08;99019.53;;;22.40;61.83
44697;BME280;57264;47.480;19.354;2023-07-16T00:26:34;99014.03;;;22.32;62.23
44697;BME280;57264;47.480;19.354;2023-07-16T00:28:59;99021.84;;;22.28;62.98
44697;BME280;57264;47.480;19.354;2023-07-16T00:31:25;99032.28;;;22.06;64.29
44697;BME280;57264;47.480;19.354;2023-07-16T00:33:50;99030.19;;;21.74;65.83
44697;BME280;57264;47.480;19.354;2023-07-16T00:36:15;99028.59;;;21.73;65.36
44697;BME280;57264;47.480;19.354;2023-07-16T00:38:41;99028.69;;;21.63;66.06
44697;BME280;57264;47.480;19.354;2023-07-16T00:41:07;99031.38;;;21.34;67.42
44697;BME280;57264;47.480;19.354;2023-07-16T00:43:33;99024.06;;;21.45;66.35
44697;BME280;57264;47.480;19.354;2023-07-16T00:45:58;99023.69;;;21.57;67.13
44697;BME280;57264;47.480;19.354;2023-07-16T00:48:23;99028.63;;;21.39;67.66
44697;BME280;57264;47.480;19.354;2023-07-16T00:50:49;99020.34;;;21.41;67.25
44697;BME280;57264;47.480;19.354;2023-07-16T00:53:15;99022.88;;;21.56;66.34
44697;BME280;57264;47.480;19.354;2023-07-16T00:55:41;99030.44;;;21.49;66.68
44697;BME280;57264;47.480;19.354;2023-07-16T00:58:07;99038.81;;;20.98;71.36
44697;BME280;57264;47.480;19.354;2023-07-16T01:00:33;99037.25;;;20.53;73.75
44697;BME280;57264;47.480;19.354;2023-07-16T01:03:00;99034.97;;;20.22;75.98
44697;BME280;57264;47.480;19.354;2023-07-16T01:05:26;99027.72;;;20.27;76.01
44697;BME280;57264;47.480;19.354;2023-07-16T01:07:55;99025.28;;;20.46;73.67
44697;BME280;57264;47.480;19.354;2023-07-16T01:10:23;99023.13;;;20.48;73.74
44697;BME280;57264;47.480;19.354;2023-07-16T01:12:50;99027.34;;;20.59;72.54
44697;BME280;57264;47.480;19.354;2023-07-16T01:15:16;99020.22;;;20.88;72.04
44697;BME280;57264;47.480;19.354;2023-07-16T01:17:42;99017.63;;;20.24;75.14
44697;BME280;57264;47.480;19.354;2023-07-16T01:20:07;99023.09;;;19.89;78.08
44697;BME280;57264;47.480;19.354;2023-07-16T01:22:35;99014.06;;;19.75;78.78
44697;BME280;57264;47.480;19.354;2023-07-16T01:30:23;99003.09;;;20.55;73.60
44697;BME280;57264;47.480;19.354;2023-07-16T01:32:51;99001.34;;;20.80;72.12
44697;BME280;57264;47.480;19.354;2023-07-16T01:35:17;99000.47;;;20.89;71.75
44697;BME280;57264;47.480;19.354;2023-07-16T01:37:43;99002.03;;;20.90;71.41
44697;BME280;57264;47.480;19.354;2023-07-16T01:40:09;99012.69;;;20.95;71.24
44697;BME280;57264;47.480;19.354;2023-07-16T01:42:34;99006.88;;;20.88;71.57
44697;BME280;57264;47.480;19.354;2023-07-16T01:45:00;99000.97;;;20.91;71.74
44697;BME280;57264;47.480;19.354;2023-07-16T01:49:53;98991.94;;;20.87;71.57
44697;BME280;57264;47.480;19.354;2023-07-16T01:52:19;98997.81;;;20.89;72.22
44697;BME280;57264;47.480;19.354;2023-07-16T01:54:44;98979.63;;;21.30;70.25
44697;BME280;57264;47.480;19.354;2023-07-16T01:57:09;98993.81;;;20.87;72.29
44697;BME280;57264;47.480;19.354;2023-07-16T01:59:34;98993.19;;;20.61;73.39
44697;BME280;57264;47.480;19.354;2023-07-16T02:02:00;98992.97;;;20.52;73.56
44697;BME280;57264;47.480;19.354;2023-07-16T02:04:25;98986.00;;;20.62;72.83
44697;BME280;57264;47.480;19.354;2023-07-16T02:06:50;98992.91;;;20.14;76.56
44697;BME280;57264;47.480;19.354;2023-07-16T02:09:16;98989.28;;;19.84;78.70
44697;BME280;57264;47.480;19.354;2023-07-16T02:11:41;98996.25;;;19.60;79.12
44697;BME280;57264;47.480;19.354;2023-07-16T02:14:07;98997.34;;;19.34;81.18
44697;BME280;57264;47.480;19.354;2023-07-16T02:16:32;98994.94;;;19.37;81.89
44697;BME280;57264;47.480;19.354;2023-07-16T02:18:57;99004.53;;;19.13;82.47
44697;BME280;57264;47.480;19.354;2023-07-16T02:21:22;99000.81;;;19.19;82.61
44697;BME280;57264;47.480;19.354;2023-07-16T02:23:48;98994.16;;;19.06;82.48
44697;BME280;57264;47.480;19.354;2023-07-16T02:26:13;98995.22;;;19.00;83.05
44697;BME280;57264;47.480;19.354;2023-07-16T02:28:39;99006.94;;;19.09;81.93
44697;BME280;57264;47.480;19.354;2023-07-16T02:31:04;99004.25;;;18.84;83.23
44697;BME280;57264;47.480;19.354;2023-07-16T02:33:32;99010.13;;;18.81;83.86
44697;BME280;57264;47.480;19.354;2023-07-16T02:35:57;99003.72;;;18.87;84.07
44697;BME280;57264;47.480;19.354;2023-07-16T02:38:23;98996.28;;;18.69;85.35
44697;BME280;57264;47.480;19.354;2023-07-16T02:40:48;98995.44;;;18.63;85.12
44697;BME280;57264;47.480;19.354;2023-07-16T02:43:14;98996.28;;;18.94;82.67
44697;BME280;57264;47.480;19.354;2023-07-16T02:45:39;98998.44;;;19.17;80.43
44697;BME280;57264;47.480;19.354;2023-07-16T02:48:05;98997.34;;;19.08;80.16
44697;BME280;57264;47.480;19.354;2023-07-16T02:50:34;99000.28;;;18.92;82.13
44697;BME280;57264;47.480;19.354;2023-07-16T02:53:01;98998.13;;;18.74;82.46
44697;BME280;57264;47.480;19.354;2023-07-16T02:55:26;99001.31;;;18.76;83.31
44697;BME280;57264;47.480;19.354;2023-07-16T02:57:52;99003.41;;;18.53;84.32
44697;BME280;57264;47.480;19.354;2023-07-16T03:00:17;99003.97;;;18.86;82.82
44697;BME280;57264;47.480;19.354;2023-07-16T03:02:42;99008.53;;;19.05;81.45
44697;BME280;57264;47.480;19.354;2023-07-16T03:05:08;99004.50;;;18.83;81.19
44697;BME280;57264;47.480;19.354;2023-07-16T03:07:33;99017.28;;;18.65;85.67
44697;BME280;57264;47.480;19.354;2023-07-16T03:09:59;99021.78;;;18.65;85.17
44697;BME280;57264;47.480;19.354;2023-07-16T03:12:25;99013.03;;;18.69;86.34
44697;BME280;57264;47.480;19.354;2023-07-16T03:14:50;99006.59;;;18.55;86.53
44697;BME280;57264;47.480;19.354;2023-07-16T03:17:19;99011.91;;;18.55;86.97
44697;BME280;57264;47.480;19.354;2023-07-16T03:19:44;99008.47;;;18.60;86.90
44697;BME280;57264;47.480;19.354;2023-07-16T03:22:09;99008.78;;;19.09;84.07
44697;BME280;57264;47.480;19.354;2023-07-16T03:24:35;99007.94;;;19.74;79.39
44697;BME280;57264;47.480;19.354;2023-07-16T03:27:00;99002.91;;;20.86;73.20
44697;BME280;57264;47.480;19.354;2023-07-16T03:29:25;99003.84;;;20.66;74.62
44697;BME280;57264;47.480;19.354;2023-07-16T03:31:51;99007.66;;;20.50;74.84
44697;BME280;57264;47.480;19.354;2023-07-16T03:34:16;99018.03;;;20.57;74.88
44697;BME280;57264;47.480;19.354;2023-07-16T03:36:41;99014.44;;;20.76;73.55
44697;BME280;57264;47.480;19.354;2023-07-16T03:39:07;99018.66;;;20.28;77.76
44697;BME280;57264;47.480;19.354;2023-07-16T03:41:32;99023.69;;;19.55;81.80
44697;BME280;57264;47.480;19.354;2023-07-16T03:43:58;99026.09;;;19.52;82.40
44697;BME280;57264;47.480;19.354;2023-07-16T03:46:23;99022.34;;;19.28;84.37
44697;BME280;57264;47.480;19.354;2023-07-16T03:48:48;99015.72;;;19.25;84.26
44697;BME280;57264;47.480;19.354;2023-07-16T03:51:14;99023.34;;;19.97;79.99
44697;BME280;57264;47.480;19.354;2023-07-16T03:53:39;99026.91;;;21.25;74.20
44697;BME280;57264;47.480;19.354;2023-07-16T03:56:04;99018.69;;;22.64;69.55
44697;BME280;57264;47.480;19.354;2023-07-16T03:58:30;99021.19;;;24.31;64.12
44697;BME280;57264;47.480;19.354;2023-07-16T04:00:55;99021.56;;;25.09;60.87
44697;BME280;57264;47.480;19.354;2023-07-16T04:03:21;99017.09;;;26.28;56.04
44697;BME280;57264;47.480;19.354;2023-07-16T04:05:46;99023.28;;;26.29;55.90
44697;BME280;57264;47.480;19.354;2023-07-16T04:08:12;99030.41;;;27.54;52.37
44697;BME280;57264;47.480;19.354;2023-07-16T04:10:37;99032.50;;;27.95;51.09
44697;BME280;57264;47.480;19.354;2023-07-16T04:13:03;99033.03;;;28.17;50.45
44697;BME280;57264;47.480;19.354;2023-07-16T04:15:28;99039.03;;;29.47;47.08
44697;BME280;57264;47.480;19.354;2023-07-16T04:17:53;99028.69;;;29.16;47.95
44697;BME280;57264;47.480;19.354;2023-07-16T04:20:19;99033.31;;;29.49;47.54
44697;BME280;57264;47.480;19.354;2023-07-16T04:22:44;99026.94;;;30.02;45.72
44697;BME280;57264;47.480;19.354;2023-07-16T04:25:09;99022.75;;;29.02;46.40
44697;BME280;57264;47.480;19.354;2023-07-16T04:27:35;99029.72;;;30.42;43.40
44697;BME280;57264;47.480;19.354;2023-07-16T04:30:01;99029.38;;;29.58;44.58
44697;BME280;57264;47.480;19.354;2023-07-16T04:32:26;99023.91;;;28.80;46.16
44697;BME280;57264;47.480;19.354;2023-07-16T04:34:52;99025.72;;;29.87;43.81
44697;BME280;57264;47.480;19.354;2023-07-16T04:37:17;99024.94;;;29.42;45.20
44697;BME280;57264;47.480;19.354;2023-07-16T04:39:42;99009.28;;;30.96;42.25
44697;BME280;57264;47.480;19.354;2023-07-16T04:42:08;99007.09;;;29.98;43.20
44697;BME280;57264;47.480;19.354;2023-07-16T04:44:33;99022.31;;;29.90;43.67
44697;BME280;57264;47.480;19.354;2023-07-16T04:46:58;99015.63;;;31.00;41.13
44697;BME280;57264;47.480;19.354;2023-07-16T04:49:24;99018.06;;;30.65;41.40
44697;BME280;57264;47.480;19.354;2023-07-16T04:51:49;99029.53;;;30.10;42.63
44697;BME280;57264;47.480;19.354;2023-07-16T04:54:14;99024.53;;;28.98;44.06
44697;BME280;57264;47.480;19.354;2023-07-16T04:56:40;99018.47;;;30.40;41.93
44697;BME280;57264;47.480;19.354;2023-07-16T04:59:05;99022.47;;;30.70;40.77
44697;BME280;57264;47.480;19.354;2023-07-16T05:01:30;99027.47;;;30.68;40.47
44697;BME280;57264;47.480;19.354;2023-07-16T05:03:56;99019.78;;;31.85;38.85
44697;BME280;57264;47.480;19.354;2023-07-16T05:06:21;99017.66;;;32.99;36.64
44697;BME280;57264;47.480;19.354;2023-07-16T05:08:46;99013.09;;;34.43;33.90
44697;BME280;57264;47.480;19.354;2023-07-16T05:11:12;99033.78;;;34.17;35.17
44697;BME280;57264;47.480;19.354;2023-07-16T05:13:37;99039.56;;;34.68;34.71
44697;BME280;57264;47.480;19.354;2023-07-16T05:16:03;99032.38;;;35.57;33.36
44697;BME280;57264;47.480;19.354;2023-07-16T05:18:28;99044.06;;;33.36;36.04
44697;BME280;57264;47.480;19.354;2023-07-16T05:20:54;99039.31;;;35.10;32.63
44697;BME280;57264;47.480;19.354;2023-07-16T05:23:19;99040.28;;;35.29;31.96
44697;BME280;57264;47.480;19.354;2023-07-16T05:25:45;99038.78;;;34.98;32.98
44697;BME280;57264;47.480;19.354;2023-07-16T05:28:11;99048.97;;;34.45;32.62
44697;BME280;57264;47.480;19.354;2023-07-16T05:30:37;99061.75;;;30.76;38.51
44697;BME280;57264;47.480;19.354;2023-07-16T05:33:02;99046.75;;;33.14;36.00
44697;BME280;57264;47.480;19.354;2023-07-16T05:35:27;99049.41;;;33.98;34.78
44697;BME280;57264;47.480;19.354;2023-07-16T05:37:53;99050.28;;;34.28;32.74
44697;BME280;57264;47.480;19.354;2023-07-16T05:40:18;99055.88;;;31.14;37.82
44697;BME280;57264;47.480;19.354;2023-07-16T05:42:43;99053.75;;;32.26;35.88
44697;BME280;57264;47.480;19.354;2023-07-16T05:45:09;99053.22;;;30.90;37.90
44697;BME280;57264;47.480;19.354;2023-07-16T05:47:34;99049.00;;;31.60;37.38
44697;BME280;57264;47.480;19.354;2023-07-16T05:50:00;99049.28;;;30.99;38.08
44697;BME280;57264;47.480;19.354;2023-07-16T05:52:25;99050.59;;;31.61;37.50
44697;BME280;57264;47.480;19.354;2023-07-16T05:54:51;99050.28;;;32.99;35.20
44697;BME280;57264;47.480;19.354;2023-07-16T05:57:16;99047.56;;;32.79;37.11
44697;BME280;57264;47.480;19.354;2023-07-16T05:59:41;99048.41;;;32.83;36.61
44697;BME280;57264;47.480;19.354;2023-07-16T06:02:07;99052.00;;;33.45;36.63
44697;BME280;57264;47.480;19.354;2023-07-16T06:04:33;99066.44;;;28.63;46.07
44697;BME280;57264;47.480;19.354;2023-07-16T06:06:58;99065.31;;;29.05;45.56
44697;BME280;57264;47.480;19.354;2023-07-16T06:09:23;99066.44;;;30.03;43.76
44697;BME280;57264;47.480;19.354;2023-07-16T06:11:49;99066.44;;;29.58;42.57
44697;BME280;57264;47.480;19.354;2023-07-16T06:14:15;99062.56;;;29.35;43.74
44697;BME280;57264;47.480;19.354;2023-07-16T06:16:40;99068.50;;;29.85;42.47
44697;BME280;57264;47.480;19.354;2023-07-16T06:19:06;99077.16;;;28.80;44.17
44697;BME280;57264;47.480;19.354;2023-07-16T06:21:31;99075.53;;;27.91;46.01
44697;BME280;57264;47.480;19.354;2023-07-16T06:23:57;99071.16;;;28.66;44.95
44697;BME280;57264;47.480;19.354;2023-07-16T06:26:22;99065.59;;;28.42;45.76
44697;BME280;57264;47.480;19.354;2023-07-16T06:28:47;99073.22;;;27.72;46.42
44697;BME280;57264;47.480;19.354;2023-07-16T06:31:16;99075.75;;;28.74;44.05
44697;BME280;57264;47.480;19.354;2023-07-16T06:33:42;99071.56;;;29.39;43.95
44697;BME280;57264;47.480;19.354;2023-07-16T06:36:07;99075.50;;;29.08;44.98
44697;BME280;57264;47.480;19.354;2023-07-16T06:38:32;99073.31;;;28.81;44.26
44697;BME280;57264;47.480;19.354;2023-07-16T06:40:58;99077.97;;;28.13;47.16
44697;BME280;57264;47.480;19.354;2023-07-16T06:43:23;99077.06;;;29.09;44.55
44697;BME280;57264;47.480;19.354;2023-07-16T06:45:49;99067.97;;;30.77;41.61
44697;BME280;57264;47.480;19.354;2023-07-16T06:48:16;99066.75;;;30.62;43.31
44697;BME280;57264;47.480;19.354;2023-07-16T06:50:41;99081.69;;;29.74;45.97
44697;BME280;57264;47.480;19.354;2023-07-16T06:53:07;99071.97;;;31.07;41.14
44697;BME280;57264;47.480;19.354;2023-07-16T06:55:32;99068.69;;;29.02;46.56
44697;BME280;57264;47.480;19.354;2023-07-16T06:57:57;99069.34;;;29.98;45.47
44697;BME280;57264;47.480;19.354;2023-07-16T07:00:23;99064.03;;;30.62;41.78
44697;BME280;57264;47.480;19.354;2023-07-16T07:02:48;99077.50;;;29.53;46.61
44697;BME280;57264;47.480;19.354;2023-07-16T07:05:13;99070.47;;;29.85;45.25
44697;BME280;57264;47.480;19.354;2023-07-16T07:07:39;99078.25;;;30.71;43.45
44697;BME280;57264;47.480;19.354;2023-07-16T07:10:04;99086.31;;;28.88;46.53
44697;BME280;57264;47.480;19.354;2023-07-16T07:12:30;99078.16;;;30.31;43.79
44697;BME280;57264;47.480;19.354;2023-07-16T07:14:59;99075.13;;;30.08;44.90
44697;BME280;57264;47.480;19.354;2023-07-16T07:17:25;99078.63;;;30.09;44.12
44697;BME280;57264;47.480;19.354;2023-07-16T07:19:50;99066.66;;;30.98;41.41
44697;BME280;57264;47.480;19.354;2023-07-16T07:22:16;99076.50;;;29.82;43.61
44697;BME280;57264;47.480;19.354;2023-07-16T07:24:41;99060.88;;;30.72;43.54
44697;BME280;57264;47.480;19.354;2023-07-16T07:27:07;99057.97;;;30.41;42.58
44697;BME280;57264;47.480;19.354;2023-07-16T07:29:32;99059.47;;;30.78;41.49
44697;BME280;57264;47.480;19.354;2023-07-16T07:31:57;99056.81;;;30.54;42.69
44697;BME280;57264;47.480;19.354;2023-07-16T07:34:25;99057.72;;;31.10;42.49
44697;BME280;57264;47.480;19.354;2023-07-16T07:36:50;99062.19;;;29.69;44.95
44697;BME280;57264;47.480;19.354;2023-07-16T07:39:15;99059.09;;;31.75;40.77
44697;BME280;57264;47.480;19.354;2023-07-16T07:41:41;99059.16;;;31.20;42.28
44697;BME280;57264;47.480;19.354;2023-07-16T07:44:07;99059.16;;;31.20;41.92
44697;BME280;57264;47.480;19.354;2023-07-16T07:46:32;99057.53;;;30.91;43.24
44697;BME280;57264;47.480;19.354;2023-07-16T07:48:58;99058.28;;;31.59;41.01
44697;BME280;57264;47.480;19.354;2023-07-16T07:51:23;99055.78;;;31.97;39.34
44697;BME280;57264;47.480;19.354;2023-07-16T07:53:49;99060.50;;;32.00;39.35
44697;BME280;57264;47.480;19.354;2023-07-16T07:56:14;99058.41;;;31.50;41.77
44697;BME280;57264;47.480;19.354;2023-07-16T07:58:39;99057.22;;;31.20;41.16
44697;BME280;57264;47.480;19.354;2023-07-16T08:01:08;99067.47;;;31.70;40.94
44697;BME280;57264;47.480;19.354;2023-07-16T08:03:33;99062.50;;;31.29;42.32
44697;BME280;57264;47.480;19.354;2023-07-16T08:05:59;99063.69;;;30.76;43.17
44697;BME280;57264;47.480;19.354;2023-07-16T08:08:24;99059.38;;;31.42;43.35
44697;BME280;57264;47.480;19.354;2023-07-16T08:10:50;99052.00;;;31.43;42.53
44697;BME280;57264;47.480;19.354;2023-07-16T08:13:15;99055.81;;;31.26;42.33
44697;BME280;57264;47.480;19.354;2023-07-16T08:15:40;99058.06;;;30.69;43.86
44697;BME280;57264;47.480;19.354;2023-07-16T08:18:06;99049.88;;;31.21;42.16
44697;BME280;57264;47.480;19.354;2023-07-16T08:20:31;99051.91;;;31.98;42.72
44697;BME280;57264;47.480;19.354;2023-07-16T08:22:57;99053.94;;;32.01;40.33
44697;BME280;57264;47.480;19.354;2023-07-16T08:25:22;99054.59;;;32.80;38.73
44697;BME280;57264;47.480;19.354;2023-07-16T08:27:48;99057.25;;;32.11;39.94
44697;BME280;57264;47.480;19.354;2023-07-16T08:30:13;99063.75;;;32.22;40.81
44697;BME280;57264;47.480;19.354;2023-07-16T08:32:39;99048.13;;;32.03;40.23
44697;BME280;57264;47.480;19.354;2023-07-16T08:35:04;99051.63;;;32.03;40.48
44697;BME280;57264;47.480;19.354;2023-07-16T08:37:30;99047.63;;;32.83;38.60
44697;BME280;57264;47.480;19.354;2023-07-16T08:39:55;99045.50;;;32.22;38.85
44697;BME280;57264;47.480;19.354;2023-07-16T08:42:20;99052.59;;;32.97;38.59
44697;BME280;57264;47.480;19.354;2023-07-16T08:44:48;99050.41;;;32.32;38.39
44697;BME280;57264;47.480;19.354;2023-07-16T08:47:13;99049.34;;;31.58;41.85
44697;BME280;57264;47.480;19.354;2023-07-16T08:49:39;99040.63;;;33.62;39.70
44697;BME280;57264;47.480;19.354;2023-07-16T08:52:06;99049.84;;;30.93;43.11
44697;BME280;57264;47.480;19.354;2023-07-16T08:54:31;99045.72;;;32.48;40.82
44697;BME280;57264;47.480;19.354;2023-07-16T08:56:57;99049.25;;;31.55;41.38
44697;BME280;57264;47.480;19.354;2023-07-16T08:59:23;99054.09;;;32.24;39.65
44697;BME280;57264;47.480;19.354;2023-07-16T09:01:48;99054.84;;;32.40;39.33
44697;BME280;57264;47.480;19.354;2023-07-16T09:04:14;99053.47;;;31.99;41.07
44697;BME280;57264;47.480;19.354;2023-07-16T09:06:40;99054.28;;;32.00;40.90
44697;BME280;57264;47.480;19.354;2023-07-16T09:09:05;99056.75;;;31.89;41.28
44697;BME280;57264;47.480;19.354;2023-07-16T09:11:31;99060.41;;;32.28;40.90
44697;BME280;57264;47.480;19.354;2023-07-16T09:13:56;99053.84;;;32.29;40.56
44697;BME280;57264;47.480;19.354;2023-07-16T09:16:21;99055.94;;;32.04;40.83
44697;BME280;57264;47.480;19.354;2023-07-16T09:18:47;99055.09;;;33.66;39.92
44697;BME280;57264;47.480;19.354;2023-07-16T09:21:12;99059.03;;;33.27;39.42
44697;BME280;57264;47.480;19.354;2023-07-16T09:23:38;99051.56;;;32.16;40.67
44697;BME280;57264;47.480;19.354;2023-07-16T09:26:06;99055.69;;;32.25;40.79
44697;BME280;57264;47.480;19.354;2023-07-16T09:28:32;99045.56;;;33.34;39.63
44697;BME280;57264;47.480;19.354;2023-07-16T09:31:07;99050.00;;;32.65;41.14
44697;BME280;57264;47.480;19.354;2023-07-16T09:33:33;99045.81;;;33.48;39.80
44697;BME280;57264;47.480;19.354;2023-07-16T09:35:58;99048.13;;;33.08;40.91
44697;BME280;57264;47.480;19.354;2023-07-16T09:38:24;99049.50;;;33.59;40.66
44697;BME280;57264;47.480;19.354;2023-07-16T09:40:50;99048.47;;;33.45;39.86
44697;BME280;57264;47.480;19.354;2023-07-16T09:43:16;99054.84;;;34.20;38.53
44697;BME280;57264;47.480;19.354;2023-07-16T09:45:42;99053.47;;;32.31;41.20
44697;BME280;57264;47.480;19.354;2023-07-16T09:48:07;99048.91;;;32.03;41.14
44697;BME280;57264;47.480;19.354;2023-07-16T09:50:34;99041.25;;;32.94;40.20
44697;BME280;57264;47.480;19.354;2023-07-16T09:53:00;99049.47;;;33.14;39.98
44697;BME280;57264;47.480;19.354;2023-07-16T09:55:28;99053.78;;;32.45;42.16
44697;BME280;57264;47.480;19.354;2023-07-16T09:57:56;99061.75;;;32.54;41.75
44697;BME280;57264;47.480;19.354;2023-07-16T10:00:22;99046.34;;;32.42;42.31
44697;BME280;57264;47.480;19.354;2023-07-16T10:02:49;99044.56;;;33.04;41.37
44697;BME280;57264;47.480;19.354;2023-07-16T10:05:15;99043.81;;;34.13;40.22
44697;BME280;57264;47.480;19.354;2023-07-16T10:07:41;99050.81;;;33.65;38.99
44697;BME280;57264;47.480;19.354;2023-07-16T10:10:08;99048.84;;;33.05;41.51
44697;BME280;57264;47.480;19.354;2023-07-16T10:12:34;99047.13;;;32.97;40.97
44697;BME280;57264;47.480;19.354;2023-07-16T10:15:00;99037.75;;;33.32;40.85
44697;BME280;57264;47.480;19.354;2023-07-16T10:17:30;99043.16;;;34.20;38.32
44697;BME280;57264;47.480;19.354;2023-07-16T10:19:56;99042.56;;;33.84;39.28
44697;BME280;57264;47.480;19.354;2023-07-16T10:22:38;99037.91;;;33.85;40.87
44697;BME280;57264;47.480;19.354;2023-07-16T10:25:25;99036.97;;;33.32;41.97
44697;BME280;57264;47.480;19.354;2023-07-16T10:27:50;99036.19;;;33.31;40.63
44697;BME280;57264;47.480;19.354;2023-07-16T10:30:16;99038.13;;;34.22;38.35
44697;BME280;57264;47.480;19.354;2023-07-16T10:32:43;99043.16;;;33.52;39.59
44697;BME280;57264;47.480;19.354;2023-07-16T10:35:09;99031.22;;;32.60;41.62
44697;BME280;57264;47.480;19.354;2023-07-16T10:37:34;99029.81;;;33.24;40.47
44697;BME280;57264;47.480;19.354;2023-07-16T10:40:00;99028.09;;;33.58;40.47
44697;BME280;57264;47.480;19.354;2023-07-16T10:42:26;99026.25;;;32.81;41.28
44697;BME280;57264;47.480;19.354;2023-07-16T10:44:53;99030.84;;;33.80;40.97
44697;BME280;57264;47.480;19.354;2023-07-16T10:47:20;99017.84;;;35.09;38.18
44697;BME280;57264;47.480;19.354;2023-07-16T10:49:46;99021.28;;;35.80;37.52
44697;BME280;57264;47.480;19.354;2023-07-16T10:52:12;99024.41;;;35.04;38.86
44697;BME280;57264;47.480;19.354;2023-07-16T10:54:37;99030.25;;;34.69;38.32
44697;BME280;57264;47.480;19.354;2023-07-16T10:57:05;99029.94;;;34.74;37.64
44697;BME280;57264;47.480;19.354;2023-07-16T10:59:31;99037.31;;;34.18;39.77
44697;BME280;57264;47.480;19.354;2023-07-16T11:01:56;99022.25;;;34.87;38.38
44697;BME280;57264;47.480;19.354;2023-07-16T11:04:22;99026.88;;;33.32;41.61
44697;BME280;57264;47.480;19.354;2023-07-16T11:06:49;99018.22;;;34.18;39.21
44697;BME280;57264;47.480;19.354;2023-07-16T11:09:14;99020.94;;;32.88;41.41
44697;BME280;57264;47.480;19.354;2023-07-16T11:11:40;99023.78;;;32.57;41.49
44697;BME280;57264;47.480;19.354;2023-07-16T11:14:09;99019.31;;;32.65;41.02
44697;BME280;57264;47.480;19.354;2023-07-16T11:16:35;99022.53;;;32.89;41.63
44697;BME280;57264;47.480;19.354;2023-07-16T11:19:09;99026.69;;;33.22;41.05
44697;BME280;57264;47.480;19.354;2023-07-16T11:21:34;99026.78;;;32.52;41.56
44697;BME280;57264;47.480;19.354;2023-07-16T11:24:12;99018.97;;;32.16;42.87
44697;BME280;57264;47.480;19.354;2023-07-16T11:26:50;99030.19;;;32.30;42.27
44697;BME280;57264;47.480;19.354;2023-07-16T11:29:15;99021.97;;;32.45;42.72
44697;BME280;57264;47.480;19.354;2023-07-16T11:31:41;99014.06;;;32.75;41.67
44697;BME280;57264;47.480;19.354;2023-07-16T11:34:07;99015.13;;;31.85;42.55
44697;BME280;57264;47.480;19.354;2023-07-16T11:36:33;99010.59;;;31.89;42.91
44697;BME280;57264;47.480;19.354;2023-07-16T11:38:58;99005.97;;;33.36;41.86
44697;BME280;57264;47.480;19.354;2023-07-16T11:41:24;98992.81;;;33.88;38.23
44697;BME280;57264;47.480;19.354;2023-07-16T11:43:49;99000.28;;;33.45;39.75
44697;BME280;57264;47.480;19.354;2023-07-16T11:46:15;98990.56;;;34.46;37.99
44697;BME280;57264;47.480;19.354;2023-07-16T11:48:41;98999.75;;;34.08;36.91
44697;BME280;57264;47.480;19.354;2023-07-16T11:51:07;98998.72;;;35.42;36.50
44697;BME280;57264;47.480;19.354;2023-07-16T11:53:32;98995.13;;;34.98;36.98
44697;BME280;57264;47.480;19.354;2023-07-16T11:55:58;98990.38;;;34.95;35.50
44697;BME280;57264;47.480;19.354;2023-07-16T11:58:26;98987.72;;;35.79;36.29
44697;BME280;57264;47.480;19.354;2023-07-16T12:00:51;98988.94;;;35.82;34.54
44697;BME280;57264;47.480;19.354;2023-07-16T12:03:17;99000.06;;;35.18;36.36
44697;BME280;57264;47.480;19.354;2023-07-16T12:05:43;98994.03;;;35.43;35.30
44697;BME280;57264;47.480;19.354;2023-07-16T12:08:08;98992.88;;;35.91;35.44
44697;BME280;57264;47.480;19.354;2023-07-16T12:10:42;98991.84;;;34.55;37.07
44697;BME280;57264;47.480;19.354;2023-07-16T12:13:07;98999.13;;;35.11;35.75
44697;BME280;57264;47.480;19.354;2023-07-16T12:15:33;98996.41;;;35.48;34.71
44697;BME280;57264;47.480;19.354;2023-07-16T12:17:59;98996.63;;;34.95;35.82
44697;BME280;57264;47.480;19.354;2023-07-16T12:20:24;98992.91;;;33.68;37.86
44697;BME280;57264;47.480;19.354;2023-07-16T12:22:49;98988.72;;;34.53;36.27
44697;BME280;57264;47.480;19.354;2023-07-16T12:25:16;98992.75;;;33.38;38.46
44697;BME280;57264;47.480;19.354;2023-07-16T12:27:41;99000.97;;;33.19;38.32
44697;BME280;57264;47.480;19.354;2023-07-16T12:30:06;98992.69;;;32.93;39.62
44697;BME280;57264;47.480;19.354;2023-07-16T12:32:33;98992.63;;;34.00;37.98
44697;BME280;57264;47.480;19.354;2023-07-16T12:34:58;98984.53;;;34.63;36.81
44697;BME280;57264;47.480;19.354;2023-07-16T12:37:26;98995.56;;;33.42;39.36
44697;BME280;57264;47.480;19.354;2023-07-16T12:39:51;98984.63;;;34.66;36.83
44697;BME280;57264;47.480;19.354;2023-07-16T12:42:17;98981.34;;;34.54;36.75
44697;BME280;57264;47.480;19.354;2023-07-16T12:44:42;98975.06;;;35.60;36.12
44697;BME280;57264;47.480;19.354;2023-07-16T12:47:08;98977.97;;;35.34;34.80
44697;BME280;57264;47.480;19.354;2023-07-16T12:49:36;98976.47;;;34.40;35.41
44697;BME280;57264;47.480;19.354;2023-07-16T12:52:02;98994.19;;;34.01;37.09